sensor_id;sensor_type;location;lat;lon;timestamp;temperature;humidity
41533;DHT22;27262;-35.248;149.138;2022-12-18T00:01:36;20.50;56.40
41533;DHT22;27262;-35.248;149.138;2022-12-18T00:04:10;20.50;56.90
41533;DHT22;27262;-35.248;149.138;2022-12-18T00:06:45;20.50;56.20
41533;DHT22;27262;-35.248;149.138;2022-12-18T00:09:16;20.50;56.20
41533;DHT22;27262;-35.248;149.138;2022-12-18T00:11:46;20.50;56.20
41533;DHT22;27262;-35.248;149.138;2022-12-18T00:14:17;20.50;56.10
41533;DHT22;27262;-35.248;149.138;2022-12-18T00:16:47;20.60;56.10
41533;DHT22;27262;-35.248;149.138;2022-12-18T00:19:18;20.60;56.00
41533;DHT22;27262;-35.248;149.138;2022-12-18T00:21:48;20.60;56.00
41533;DHT22;27262;-35.248;149.138;2022-12-18T00:24:18;20.60;55.90
41533;DHT22;27262;-35.248;149.138;2022-12-18T00:26:48;20.60;55.80
41533;DHT22;27262;-35.248;149.138;2022-12-18T00:29:19;20.60;55.80
41533;DHT22;27262;-35.248;149.138;2022-12-18T00:31:49;20.60;55.70
41533;DHT22;27262;-35.248;149.138;2022-12-18T00:34:19;20.60;55.60
41533;DHT22;27262;-35.248;149.138;2022-12-18T00:36:50;20.60;55.50
41533;DHT22;27262;-35.248;149.138;2022-12-18T00:39:20;20.60;55.40
41533;DHT22;27262;-35.248;149.138;2022-12-18T00:41:50;20.60;55.50
41533;DHT22;27262;-35.248;149.138;2022-12-18T00:44:39;20.60;55.30
41533;DHT22;27262;-35.248;149.138;2022-12-18T00:47:10;20.70;55.30
41533;DHT22;27262;-35.248;149.138;2022-12-18T00:49:40;20.70;55.20
41533;DHT22;27262;-35.248;149.138;2022-12-18T00:52:10;20.70;55.20
41533;DHT22;27262;-35.248;149.138;2022-12-18T00:54:40;20.70;55.10
41533;DHT22;27262;-35.248;149.138;2022-12-18T00:57:11;20.70;55.00
41533;DHT22;27262;-35.248;149.138;2022-12-18T00:59:41;20.70;55.00
41533;DHT22;27262;-35.248;149.138;2022-12-18T01:02:15;20.70;55.00
41533;DHT22;27262;-35.248;149.138;2022-12-18T01:04:46;20.70;55.00
41533;DHT22;27262;-35.248;149.138;2022-12-18T01:07:16;20.70;54.90
41533;DHT22;27262;-35.248;149.138;2022-12-18T01:09:46;20.70;54.80
41533;DHT22;27262;-35.248;149.138;2022-12-18T01:12:16;20.70;54.70
41533;DHT22;27262;-35.248;149.138;2022-12-18T01:14:47;20.70;54.70
41533;DHT22;27262;-35.248;149.138;2022-12-18T01:17:17;20.80;54.70
41533;DHT22;27262;-35.248;149.138;2022-12-18T01:19:47;20.80;54.70
41533;DHT22;27262;-35.248;149.138;2022-12-18T01:22:17;20.80;54.60
41533;DHT22;27262;-35.248;149.138;2022-12-18T01:24:48;20.80;54.50
41533;DHT22;27262;-35.248;149.138;2022-12-18T01:27:18;20.80;54.40
41533;DHT22;27262;-35.248;149.138;2022-12-18T01:29:50;20.80;54.30
41533;DHT22;27262;-35.248;149.138;2022-12-18T01:32:20;20.90;54.30
41533;DHT22;27262;-35.248;149.138;2022-12-18T01:34:51;20.90;54.10
41533;DHT22;27262;-35.248;149.138;2022-12-18T01:37:21;20.80;54.60
41533;DHT22;27262;-35.248;149.138;2022-12-18T01:39:53;20.90;54.00
41533;DHT22;27262;-35.248;149.138;2022-12-18T01:42:24;20.90;53.80
41533;DHT22;27262;-35.248;149.138;2022-12-18T01:55:48;21.00;53.20
41533;DHT22;27262;-35.248;149.138;2022-12-18T01:58:22;20.90;53.10
41533;DHT22;27262;-35.248;149.138;2022-12-18T02:00:55;20.90;53.10
41533;DHT22;27262;-35.248;149.138;2022-12-18T02:03:26;21.00;53.20
41533;DHT22;27262;-35.248;149.138;2022-12-18T02:11:59;21.00;52.80
41533;DHT22;27262;-35.248;149.138;2022-12-18T02:14:41;21.00;52.70
41533;DHT22;27262;-35.248;149.138;2022-12-18T02:18:07;21.00;52.90
41533;DHT22;27262;-35.248;149.138;2022-12-18T02:20:22;21.00;52.70
41533;DHT22;27262;-35.248;149.138;2022-12-18T02:28:36;21.10;52.70
41533;DHT22;27262;-35.248;149.138;2022-12-18T02:31:14;21.10;52.80
41533;DHT22;27262;-35.248;149.138;2022-12-18T02:33:46;21.10;52.90
41533;DHT22;27262;-35.248;149.138;2022-12-18T02:36:19;21.10;52.90
41533;DHT22;27262;-35.248;149.138;2022-12-18T02:38:51;21.10;52.80
41533;DHT22;27262;-35.248;149.138;2022-12-18T02:41:26;21.10;52.90
41533;DHT22;27262;-35.248;149.138;2022-12-18T02:44:00;21.10;52.90
41533;DHT22;27262;-35.248;149.138;2022-12-18T02:46:44;21.10;53.00
41533;DHT22;27262;-35.248;149.138;2022-12-18T02:55:43;21.10;53.00
41533;DHT22;27262;-35.248;149.138;2022-12-18T02:58:52;21.10;52.90
41533;DHT22;27262;-35.248;149.138;2022-12-18T03:01:49;21.20;53.00
41533;DHT22;27262;-35.248;149.138;2022-12-18T03:04:42;21.20;53.00
41533;DHT22;27262;-35.248;149.138;2022-12-18T03:07:19;21.10;52.90
41533;DHT22;27262;-35.248;149.138;2022-12-18T03:09:52;21.10;52.90
41533;DHT22;27262;-35.248;149.138;2022-12-18T03:12:37;21.10;52.90
41533;DHT22;27262;-35.248;149.138;2022-12-18T03:15:21;21.20;52.70
41533;DHT22;27262;-35.248;149.138;2022-12-18T03:18:04;21.20;52.80
41533;DHT22;27262;-35.248;149.138;2022-12-18T03:20:37;21.20;52.60
41533;DHT22;27262;-35.248;149.138;2022-12-18T03:23:12;21.20;52.60
41533;DHT22;27262;-35.248;149.138;2022-12-18T03:25:45;21.30;53.20
41533;DHT22;27262;-35.248;149.138;2022-12-18T03:28:21;21.20;52.40
41533;DHT22;27262;-35.248;149.138;2022-12-18T03:30:57;21.30;52.50
41533;DHT22;27262;-35.248;149.138;2022-12-18T03:33:54;21.30;52.40
41533;DHT22;27262;-35.248;149.138;2022-12-18T03:36:27;21.30;52.10
41533;DHT22;27262;-35.248;149.138;2022-12-18T03:38:57;21.30;52.40
41533;DHT22;27262;-35.248;149.138;2022-12-18T03:41:31;21.30;52.40
41533;DHT22;27262;-35.248;149.138;2022-12-18T03:49:37;21.30;52.10
41533;DHT22;27262;-35.248;149.138;2022-12-18T03:55:00;21.30;51.80
41533;DHT22;27262;-35.248;149.138;2022-12-18T03:57:32;21.30;51.90
41533;DHT22;27262;-35.248;149.138;2022-12-18T04:00:13;21.30;51.80
41533;DHT22;27262;-35.248;149.138;2022-12-18T04:02:50;21.30;51.60
41533;DHT22;27262;-35.248;149.138;2022-12-18T04:05:22;21.30;51.60
41533;DHT22;27262;-35.248;149.138;2022-12-18T04:07:55;21.40;51.60
41533;DHT22;27262;-35.248;149.138;2022-12-18T04:10:26;21.40;51.60
41533;DHT22;27262;-35.248;149.138;2022-12-18T04:12:57;21.40;51.50
41533;DHT22;27262;-35.248;149.138;2022-12-18T04:15:27;21.40;51.50
41533;DHT22;27262;-35.248;149.138;2022-12-18T04:17:58;21.40;51.30
41533;DHT22;27262;-35.248;149.138;2022-12-18T04:20:28;21.40;51.20
41533;DHT22;27262;-35.248;149.138;2022-12-18T04:22:58;21.40;51.20
41533;DHT22;27262;-35.248;149.138;2022-12-18T04:25:28;21.50;51.20
41533;DHT22;27262;-35.248;149.138;2022-12-18T04:27:59;21.40;51.20
41533;DHT22;27262;-35.248;149.138;2022-12-18T04:30:29;21.50;51.20
41533;DHT22;27262;-35.248;149.138;2022-12-18T04:32:59;21.50;51.20
41533;DHT22;27262;-35.248;149.138;2022-12-18T04:35:29;21.50;51.20
41533;DHT22;27262;-35.248;149.138;2022-12-18T04:38:00;21.50;51.20
41533;DHT22;27262;-35.248;149.138;2022-12-18T04:40:31;21.50;51.20
41533;DHT22;27262;-35.248;149.138;2022-12-18T04:43:01;21.50;51.10
41533;DHT22;27262;-35.248;149.138;2022-12-18T04:45:32;21.50;51.00
41533;DHT22;27262;-35.248;149.138;2022-12-18T04:48:04;21.60;51.10
41533;DHT22;27262;-35.248;149.138;2022-12-18T04:50:34;21.60;51.00
41533;DHT22;27262;-35.248;149.138;2022-12-18T04:53:04;21.60;51.00
41533;DHT22;27262;-35.248;149.138;2022-12-18T04:55:35;21.60;50.80
41533;DHT22;27262;-35.248;149.138;2022-12-18T04:58:05;21.60;50.80
41533;DHT22;27262;-35.248;149.138;2022-12-18T05:00:36;21.60;50.70
41533;DHT22;27262;-35.248;149.138;2022-12-18T05:03:06;21.60;50.70
41533;DHT22;27262;-35.248;149.138;2022-12-18T05:05:37;21.60;50.60
41533;DHT22;27262;-35.248;149.138;2022-12-18T05:08:07;21.60;50.50
41533;DHT22;27262;-35.248;149.138;2022-12-18T05:10:38;21.60;50.40
41533;DHT22;27262;-35.248;149.138;2022-12-18T05:13:08;21.70;50.50
41533;DHT22;27262;-35.248;149.138;2022-12-18T05:15:39;21.70;50.40
41533;DHT22;27262;-35.248;149.138;2022-12-18T05:18:09;21.70;50.40
41533;DHT22;27262;-35.248;149.138;2022-12-18T05:20:39;21.70;50.40
41533;DHT22;27262;-35.248;149.138;2022-12-18T05:23:10;21.70;50.40
41533;DHT22;27262;-35.248;149.138;2022-12-18T05:25:40;21.70;50.40
41533;DHT22;27262;-35.248;149.138;2022-12-18T05:28:11;21.70;50.50
41533;DHT22;27262;-35.248;149.138;2022-12-18T05:30:42;21.70;50.50
41533;DHT22;27262;-35.248;149.138;2022-12-18T05:33:12;21.70;50.50
41533;DHT22;27262;-35.248;149.138;2022-12-18T05:35:43;21.70;50.50
41533;DHT22;27262;-35.248;149.138;2022-12-18T05:38:14;21.80;50.60
41533;DHT22;27262;-35.248;149.138;2022-12-18T05:40:45;21.80;50.80
41533;DHT22;27262;-35.248;149.138;2022-12-18T05:43:16;21.80;51.30
41533;DHT22;27262;-35.248;149.138;2022-12-18T05:45:49;21.80;51.00
41533;DHT22;27262;-35.248;149.138;2022-12-18T05:48:20;21.80;51.00
41533;DHT22;27262;-35.248;149.138;2022-12-18T05:50:51;21.80;51.00
41533;DHT22;27262;-35.248;149.138;2022-12-18T05:53:22;21.90;51.00
41533;DHT22;27262;-35.248;149.138;2022-12-18T05:55:52;21.90;50.90
41533;DHT22;27262;-35.248;149.138;2022-12-18T05:58:23;21.90;50.80
41533;DHT22;27262;-35.248;149.138;2022-12-18T06:00:53;21.90;50.80
41533;DHT22;27262;-35.248;149.138;2022-12-18T06:03:24;21.90;50.70
41533;DHT22;27262;-35.248;149.138;2022-12-18T06:06:00;21.90;50.50
41533;DHT22;27262;-35.248;149.138;2022-12-18T06:08:31;21.90;50.40
41533;DHT22;27262;-35.248;149.138;2022-12-18T06:11:01;21.90;50.30
41533;DHT22;27262;-35.248;149.138;2022-12-18T06:13:31;22.00;50.40
41533;DHT22;27262;-35.248;149.138;2022-12-18T06:16:05;21.90;50.30
41533;DHT22;27262;-35.248;149.138;2022-12-18T06:18:36;22.00;50.30
41533;DHT22;27262;-35.248;149.138;2022-12-18T06:21:06;22.00;50.30
41533;DHT22;27262;-35.248;149.138;2022-12-18T06:23:36;22.00;50.20
41533;DHT22;27262;-35.248;149.138;2022-12-18T06:26:13;22.00;50.10
41533;DHT22;27262;-35.248;149.138;2022-12-18T06:28:43;22.00;50.10
41533;DHT22;27262;-35.248;149.138;2022-12-18T06:31:14;22.00;50.10
41533;DHT22;27262;-35.248;149.138;2022-12-18T06:33:44;22.00;49.90
41533;DHT22;27262;-35.248;149.138;2022-12-18T06:36:15;22.00;49.80
41533;DHT22;27262;-35.248;149.138;2022-12-18T06:38:46;22.00;49.60
41533;DHT22;27262;-35.248;149.138;2022-12-18T06:41:20;22.00;49.60
41533;DHT22;27262;-35.248;149.138;2022-12-18T06:43:51;22.00;49.60
41533;DHT22;27262;-35.248;149.138;2022-12-18T06:46:26;22.00;50.30
41533;DHT22;27262;-35.248;149.138;2022-12-18T06:48:56;22.00;49.60
41533;DHT22;27262;-35.248;149.138;2022-12-18T06:51:27;22.10;49.60
41533;DHT22;27262;-35.248;149.138;2022-12-18T06:53:57;22.00;49.50
41533;DHT22;27262;-35.248;149.138;2022-12-18T06:56:28;22.00;49.50
41533;DHT22;27262;-35.248;149.138;2022-12-18T06:58:58;22.00;49.50
41533;DHT22;27262;-35.248;149.138;2022-12-18T07:01:28;22.10;49.50
41533;DHT22;27262;-35.248;149.138;2022-12-18T07:03:59;22.00;49.40
41533;DHT22;27262;-35.248;149.138;2022-12-18T07:06:29;22.00;49.40
41533;DHT22;27262;-35.248;149.138;2022-12-18T07:08:59;22.10;49.60
41533;DHT22;27262;-35.248;149.138;2022-12-18T07:11:31;22.10;49.60
41533;DHT22;27262;-35.248;149.138;2022-12-18T07:14:02;22.10;49.60
41533;DHT22;27262;-35.248;149.138;2022-12-18T07:16:32;22.10;49.50
41533;DHT22;27262;-35.248;149.138;2022-12-18T07:19:03;22.10;49.60
41533;DHT22;27262;-35.248;149.138;2022-12-18T07:21:33;22.10;49.30
41533;DHT22;27262;-35.248;149.138;2022-12-18T07:24:04;22.10;49.40
41533;DHT22;27262;-35.248;149.138;2022-12-18T07:26:34;22.00;49.60
41533;DHT22;27262;-35.248;149.138;2022-12-18T07:29:04;22.00;49.50
41533;DHT22;27262;-35.248;149.138;2022-12-18T07:31:34;22.00;49.40
41533;DHT22;27262;-35.248;149.138;2022-12-18T07:34:05;22.00;49.30
41533;DHT22;27262;-35.248;149.138;2022-12-18T07:36:39;22.10;49.30
41533;DHT22;27262;-35.248;149.138;2022-12-18T07:39:11;22.10;49.20
41533;DHT22;27262;-35.248;149.138;2022-12-18T07:41:41;22.10;49.00
41533;DHT22;27262;-35.248;149.138;2022-12-18T07:44:15;22.10;49.20
41533;DHT22;27262;-35.248;149.138;2022-12-18T07:46:45;22.10;49.00
41533;DHT22;27262;-35.248;149.138;2022-12-18T07:49:15;22.10;49.20
41533;DHT22;27262;-35.248;149.138;2022-12-18T07:51:45;22.10;49.40
41533;DHT22;27262;-35.248;149.138;2022-12-18T07:54:18;22.10;49.50
41533;DHT22;27262;-35.248;149.138;2022-12-18T07:56:48;22.10;49.60
41533;DHT22;27262;-35.248;149.138;2022-12-18T07:59:19;22.10;49.80
41533;DHT22;27262;-35.248;149.138;2022-12-18T08:01:49;22.10;49.90
41533;DHT22;27262;-35.248;149.138;2022-12-18T08:04:20;22.10;50.60
41533;DHT22;27262;-35.248;149.138;2022-12-18T08:06:51;22.10;50.10
41533;DHT22;27262;-35.248;149.138;2022-12-18T08:09:22;22.00;50.10
41533;DHT22;27262;-35.248;149.138;2022-12-18T08:11:53;22.10;50.50
41533;DHT22;27262;-35.248;149.138;2022-12-18T08:14:25;22.00;50.60
41533;DHT22;27262;-35.248;149.138;2022-12-18T08:16:56;22.00;50.60
41533;DHT22;27262;-35.248;149.138;2022-12-18T08:19:28;22.00;50.60
41533;DHT22;27262;-35.248;149.138;2022-12-18T08:22:00;22.00;50.60
41533;DHT22;27262;-35.248;149.138;2022-12-18T08:24:31;22.00;50.60
41533;DHT22;27262;-35.248;149.138;2022-12-18T08:27:02;22.00;50.70
41533;DHT22;27262;-35.248;149.138;2022-12-18T08:29:53;22.00;50.90
41533;DHT22;27262;-35.248;149.138;2022-12-18T08:32:25;22.00;50.90
41533;DHT22;27262;-35.248;149.138;2022-12-18T08:34:57;22.00;50.90
41533;DHT22;27262;-35.248;149.138;2022-12-18T08:37:28;22.00;50.90
41533;DHT22;27262;-35.248;149.138;2022-12-18T08:40:00;22.00;51.00
41533;DHT22;27262;-35.248;149.138;2022-12-18T08:42:31;22.00;50.90
41533;DHT22;27262;-35.248;149.138;2022-12-18T08:45:19;22.00;51.00
41533;DHT22;27262;-35.248;149.138;2022-12-18T08:47:51;22.00;51.00
41533;DHT22;27262;-35.248;149.138;2022-12-18T08:50:22;22.00;51.10
41533;DHT22;27262;-35.248;149.138;2022-12-18T08:52:52;22.00;51.00
41533;DHT22;27262;-35.248;149.138;2022-12-18T08:55:22;22.00;51.10
41533;DHT22;27262;-35.248;149.138;2022-12-18T08:57:53;22.00;51.10
41533;DHT22;27262;-35.248;149.138;2022-12-18T09:00:23;22.00;51.80
41533;DHT22;27262;-35.248;149.138;2022-12-18T09:02:54;22.00;51.20
41533;DHT22;27262;-35.248;149.138;2022-12-18T09:05:24;22.00;51.80
41533;DHT22;27262;-35.248;149.138;2022-12-18T09:07:54;22.00;51.20
41533;DHT22;27262;-35.248;149.138;2022-12-18T09:10:24;22.00;51.30
41533;DHT22;27262;-35.248;149.138;2022-12-18T09:12:55;22.00;51.40
41533;DHT22;27262;-35.248;149.138;2022-12-18T09:15:26;22.00;51.30
41533;DHT22;27262;-35.248;149.138;2022-12-18T09:17:56;22.00;51.30
41533;DHT22;27262;-35.248;149.138;2022-12-18T09:20:26;22.00;51.40
41533;DHT22;27262;-35.248;149.138;2022-12-18T09:22:59;22.00;51.40
41533;DHT22;27262;-35.248;149.138;2022-12-18T09:25:29;22.00;51.50
41533;DHT22;27262;-35.248;149.138;2022-12-18T09:28:12;22.00;51.50
41533;DHT22;27262;-35.248;149.138;2022-12-18T09:30:52;22.00;51.50
41533;DHT22;27262;-35.248;149.138;2022-12-18T09:33:23;22.00;51.50
41533;DHT22;27262;-35.248;149.138;2022-12-18T09:35:53;22.00;51.50
41533;DHT22;27262;-35.248;149.138;2022-12-18T09:38:23;21.90;51.50
41533;DHT22;27262;-35.248;149.138;2022-12-18T09:41:00;21.90;51.50
41533;DHT22;27262;-35.248;149.138;2022-12-18T09:46:43;22.00;52.20
41533;DHT22;27262;-35.248;149.138;2022-12-18T09:49:21;21.90;51.60
41533;DHT22;27262;-35.248;149.138;2022-12-18T09:54:42;21.90;51.60
41533;DHT22;27262;-35.248;149.138;2022-12-18T09:57:17;21.90;51.50
41533;DHT22;27262;-35.248;149.138;2022-12-18T10:00:15;21.90;51.70
41533;DHT22;27262;-35.248;149.138;2022-12-18T10:02:48;21.90;51.70
41533;DHT22;27262;-35.248;149.138;2022-12-18T10:14:09;21.80;51.70
41533;DHT22;27262;-35.248;149.138;2022-12-18T10:16:50;21.80;51.70
41533;DHT22;27262;-35.248;149.138;2022-12-18T10:27:27;21.80;51.90
41533;DHT22;27262;-35.248;149.138;2022-12-18T10:29:58;21.80;51.90
41533;DHT22;27262;-35.248;149.138;2022-12-18T10:32:31;21.80;51.90
41533;DHT22;27262;-35.248;149.138;2022-12-18T10:35:01;21.80;51.90
41533;DHT22;27262;-35.248;149.138;2022-12-18T10:37:32;21.80;51.90
41533;DHT22;27262;-35.248;149.138;2022-12-18T10:40:13;21.80;52.00
41533;DHT22;27262;-35.248;149.138;2022-12-18T10:43:16;21.80;52.00
41533;DHT22;27262;-35.248;149.138;2022-12-18T10:48:53;21.70;52.00
41533;DHT22;27262;-35.248;149.138;2022-12-18T10:51:29;21.70;52.10
41533;DHT22;27262;-35.248;149.138;2022-12-18T10:54:22;21.70;52.10
41533;DHT22;27262;-35.248;149.138;2022-12-18T10:57:16;21.80;52.20
41533;DHT22;27262;-35.248;149.138;2022-12-18T10:59:57;21.70;52.10
41533;DHT22;27262;-35.248;149.138;2022-12-18T11:02:38;21.70;52.20
41533;DHT22;27262;-35.248;149.138;2022-12-18T11:05:31;21.70;52.20
41533;DHT22;27262;-35.248;149.138;2022-12-18T11:08:02;21.70;52.20
41533;DHT22;27262;-35.248;149.138;2022-12-18T11:10:37;21.70;52.30
41533;DHT22;27262;-35.248;149.138;2022-12-18T11:15:48;21.70;52.30
41533;DHT22;27262;-35.248;149.138;2022-12-18T11:18:33;21.70;52.30
41533;DHT22;27262;-35.248;149.138;2022-12-18T11:21:09;21.70;52.30
41533;DHT22;27262;-35.248;149.138;2022-12-18T11:23:51;21.70;52.40
41533;DHT22;27262;-35.248;149.138;2022-12-18T11:26:34;21.70;52.40
41533;DHT22;27262;-35.248;149.138;2022-12-18T11:29:15;21.70;52.50
41533;DHT22;27262;-35.248;149.138;2022-12-18T11:31:48;21.70;52.60
41533;DHT22;27262;-35.248;149.138;2022-12-18T11:34:30;21.60;52.60
41533;DHT22;27262;-35.248;149.138;2022-12-18T11:37:03;21.60;52.60
41533;DHT22;27262;-35.248;149.138;2022-12-18T11:42:54;21.60;52.60
41533;DHT22;27262;-35.248;149.138;2022-12-18T11:47:52;21.60;52.70
41533;DHT22;27262;-35.248;149.138;2022-12-18T11:50:34;21.60;52.70
41533;DHT22;27262;-35.248;149.138;2022-12-18T11:53:13;21.60;52.70
41533;DHT22;27262;-35.248;149.138;2022-12-18T12:04:46;21.60;53.30
41533;DHT22;27262;-35.248;149.138;2022-12-18T12:12:55;21.50;52.70
41533;DHT22;27262;-35.248;149.138;2022-12-18T12:39:31;21.40;53.20
41533;DHT22;27262;-35.248;149.138;2022-12-18T12:45:44;21.40;53.20
41533;DHT22;27262;-35.248;149.138;2022-12-18T12:48:35;21.40;53.30
41533;DHT22;27262;-35.248;149.138;2022-12-18T12:53:44;21.40;53.40
41533;DHT22;27262;-35.248;149.138;2022-12-18T12:56:17;21.40;53.40
41533;DHT22;27262;-35.248;149.138;2022-12-18T13:04:44;21.30;53.30
41533;DHT22;27262;-35.248;149.138;2022-12-18T13:07:26;21.30;53.40
41533;DHT22;27262;-35.248;149.138;2022-12-18T13:15:44;21.30;53.50
41533;DHT22;27262;-35.248;149.138;2022-12-18T13:18:22;21.30;53.50
41533;DHT22;27262;-35.248;149.138;2022-12-18T13:23:38;21.30;53.50
41533;DHT22;27262;-35.248;149.138;2022-12-18T13:28:57;21.20;53.50
41533;DHT22;27262;-35.248;149.138;2022-12-18T13:34:21;21.20;53.40
41533;DHT22;27262;-35.248;149.138;2022-12-18T13:39:44;21.20;53.50
41533;DHT22;27262;-35.248;149.138;2022-12-18T13:48:24;21.10;53.30
41533;DHT22;27262;-35.248;149.138;2022-12-18T13:51:07;21.10;53.40
41533;DHT22;27262;-35.248;149.138;2022-12-18T13:53:43;21.10;53.40
41533;DHT22;27262;-35.248;149.138;2022-12-18T13:56:21;21.10;53.40
41533;DHT22;27262;-35.248;149.138;2022-12-18T13:59:19;21.10;53.30
41533;DHT22;27262;-35.248;149.138;2022-12-18T14:01:59;21.10;53.30
41533;DHT22;27262;-35.248;149.138;2022-12-18T14:04:33;21.10;53.30
41533;DHT22;27262;-35.248;149.138;2022-12-18T14:07:30;21.00;53.30
41533;DHT22;27262;-35.248;149.138;2022-12-18T14:10:15;21.00;53.20
41533;DHT22;27262;-35.248;149.138;2022-12-18T14:13:08;21.00;53.30
41533;DHT22;27262;-35.248;149.138;2022-12-18T14:15:43;21.00;53.40
41533;DHT22;27262;-35.248;149.138;2022-12-18T14:21:06;21.00;53.20
41533;DHT22;27262;-35.248;149.138;2022-12-18T14:23:37;21.00;53.30
41533;DHT22;27262;-35.248;149.138;2022-12-18T14:26:29;21.00;53.70
41533;DHT22;27262;-35.248;149.138;2022-12-18T14:29:18;21.00;53.30
41533;DHT22;27262;-35.248;149.138;2022-12-18T14:32:12;20.90;53.30
41533;DHT22;27262;-35.248;149.138;2022-12-18T14:34:50;20.90;53.20
41533;DHT22;27262;-35.248;149.138;2022-12-18T14:37:24;20.90;53.30
41533;DHT22;27262;-35.248;149.138;2022-12-18T14:39:58;20.90;53.40
41533;DHT22;27262;-35.248;149.138;2022-12-18T14:42:38;20.90;53.30
41533;DHT22;27262;-35.248;149.138;2022-12-18T14:45:39;20.90;53.30
41533;DHT22;27262;-35.248;149.138;2022-12-18T14:48:38;20.90;53.30
41533;DHT22;27262;-35.248;149.138;2022-12-18T14:51:24;20.90;53.40
41533;DHT22;27262;-35.248;149.138;2022-12-18T14:54:05;20.90;53.50
41533;DHT22;27262;-35.248;149.138;2022-12-18T14:56:46;20.80;53.50
41533;DHT22;27262;-35.248;149.138;2022-12-18T14:59:26;20.80;53.50
41533;DHT22;27262;-35.248;149.138;2022-12-18T15:07:44;20.80;53.60
41533;DHT22;27262;-35.248;149.138;2022-12-18T15:10:27;20.80;53.70
41533;DHT22;27262;-35.248;149.138;2022-12-18T15:18:14;20.70;53.60
41533;DHT22;27262;-35.248;149.138;2022-12-18T15:20:52;20.70;53.60
41533;DHT22;27262;-35.248;149.138;2022-12-18T15:36:32;20.60;53.50
41533;DHT22;27262;-35.248;149.138;2022-12-18T15:39:06;20.60;53.50
41533;DHT22;27262;-35.248;149.138;2022-12-18T15:41:54;20.60;53.60
41533;DHT22;27262;-35.248;149.138;2022-12-18T15:45:01;20.60;53.60
41533;DHT22;27262;-35.248;149.138;2022-12-18T15:47:32;20.60;53.70
41533;DHT22;27262;-35.248;149.138;2022-12-18T15:50:03;20.60;53.60
41533;DHT22;27262;-35.248;149.138;2022-12-18T15:52:43;20.60;53.50
41533;DHT22;27262;-35.248;149.138;2022-12-18T15:55:22;20.50;53.40
41533;DHT22;27262;-35.248;149.138;2022-12-18T15:58:11;20.50;53.40
41533;DHT22;27262;-35.248;149.138;2022-12-18T16:00:42;20.50;53.50
41533;DHT22;27262;-35.248;149.138;2022-12-18T16:03:13;20.50;53.40
41533;DHT22;27262;-35.248;149.138;2022-12-18T16:05:43;20.50;53.40
41533;DHT22;27262;-35.248;149.138;2022-12-18T16:08:14;20.50;53.40
41533;DHT22;27262;-35.248;149.138;2022-12-18T16:10:47;20.50;53.30
41533;DHT22;27262;-35.248;149.138;2022-12-18T16:13:20;20.50;53.30
41533;DHT22;27262;-35.248;149.138;2022-12-18T16:15:50;20.50;53.40
41533;DHT22;27262;-35.248;149.138;2022-12-18T16:18:21;20.40;53.30
41533;DHT22;27262;-35.248;149.138;2022-12-18T16:20:51;20.40;53.20
41533;DHT22;27262;-35.248;149.138;2022-12-18T16:23:22;20.40;53.90
41533;DHT22;27262;-35.248;149.138;2022-12-18T16:25:53;20.40;53.20
41533;DHT22;27262;-35.248;149.138;2022-12-18T16:28:23;20.40;53.30
41533;DHT22;27262;-35.248;149.138;2022-12-18T16:30:53;20.40;53.20
41533;DHT22;27262;-35.248;149.138;2022-12-18T16:33:24;20.40;53.20
41533;DHT22;27262;-35.248;149.138;2022-12-18T16:35:54;20.40;53.20
41533;DHT22;27262;-35.248;149.138;2022-12-18T16:38:27;20.40;53.20
41533;DHT22;27262;-35.248;149.138;2022-12-18T16:40:57;20.30;53.30
41533;DHT22;27262;-35.248;149.138;2022-12-18T16:43:45;20.30;53.20
41533;DHT22;27262;-35.248;149.138;2022-12-18T16:46:21;20.30;53.40
41533;DHT22;27262;-35.248;149.138;2022-12-18T16:48:52;20.30;53.40
41533;DHT22;27262;-35.248;149.138;2022-12-18T16:51:22;20.30;53.40
41533;DHT22;27262;-35.248;149.138;2022-12-18T16:53:56;20.30;53.40
41533;DHT22;27262;-35.248;149.138;2022-12-18T16:56:27;20.30;53.50
41533;DHT22;27262;-35.248;149.138;2022-12-18T16:58:59;20.20;53.40
41533;DHT22;27262;-35.248;149.138;2022-12-18T17:01:31;20.20;53.50
41533;DHT22;27262;-35.248;149.138;2022-12-18T17:04:06;20.20;53.50
41533;DHT22;27262;-35.248;149.138;2022-12-18T17:06:41;20.20;53.50
41533;DHT22;27262;-35.248;149.138;2022-12-18T17:09:13;20.20;53.60
41533;DHT22;27262;-35.248;149.138;2022-12-18T17:11:44;20.20;53.60
41533;DHT22;27262;-35.248;149.138;2022-12-18T17:14:17;20.20;53.60
41533;DHT22;27262;-35.248;149.138;2022-12-18T17:16:48;20.20;53.60
41533;DHT22;27262;-35.248;149.138;2022-12-18T17:19:39;20.10;53.60
41533;DHT22;27262;-35.248;149.138;2022-12-18T17:22:09;20.10;53.70
41533;DHT22;27262;-35.248;149.138;2022-12-18T17:24:39;20.10;53.70
41533;DHT22;27262;-35.248;149.138;2022-12-18T17:27:10;20.10;53.70
41533;DHT22;27262;-35.248;149.138;2022-12-18T17:29:40;20.10;53.70
41533;DHT22;27262;-35.248;149.138;2022-12-18T17:32:16;20.10;53.70
41533;DHT22;27262;-35.248;149.138;2022-12-18T17:34:46;20.10;53.70
41533;DHT22;27262;-35.248;149.138;2022-12-18T17:37:16;20.10;53.70
41533;DHT22;27262;-35.248;149.138;2022-12-18T17:39:47;20.00;53.70
41533;DHT22;27262;-35.248;149.138;2022-12-18T17:42:17;20.10;53.70
41533;DHT22;27262;-35.248;149.138;2022-12-18T17:44:47;20.10;53.80
41533;DHT22;27262;-35.248;149.138;2022-12-18T17:47:18;20.00;53.70
41533;DHT22;27262;-35.248;149.138;2022-12-18T17:49:48;20.00;53.80
41533;DHT22;27262;-35.248;149.138;2022-12-18T17:52:20;20.00;53.80
41533;DHT22;27262;-35.248;149.138;2022-12-18T17:54:50;20.00;53.80
41533;DHT22;27262;-35.248;149.138;2022-12-18T17:57:21;20.00;53.80
41533;DHT22;27262;-35.248;149.138;2022-12-18T17:59:51;20.00;53.80
41533;DHT22;27262;-35.248;149.138;2022-12-18T18:02:22;20.00;53.80
41533;DHT22;27262;-35.248;149.138;2022-12-18T18:04:53;19.90;53.80
41533;DHT22;27262;-35.248;149.138;2022-12-18T18:07:23;20.00;53.80
41533;DHT22;27262;-35.248;149.138;2022-12-18T18:09:54;19.90;53.80
41533;DHT22;27262;-35.248;149.138;2022-12-18T18:12:24;19.90;53.90
41533;DHT22;27262;-35.248;149.138;2022-12-18T18:15:13;19.90;53.90
41533;DHT22;27262;-35.248;149.138;2022-12-18T18:17:43;19.90;54.00
41533;DHT22;27262;-35.248;149.138;2022-12-18T18:20:15;19.80;53.90
41533;DHT22;27262;-35.248;149.138;2022-12-18T18:22:49;19.90;54.00